createdAt,value
2018-09-09T00:01:23.931Z,3.20
2018-09-09T00:02:59.414Z,3.37
2018-09-09T00:04:34.946Z,3.00
2018-09-09T00:06:10.474Z,3.50
2018-09-09T00:07:45.984Z,3.20
2018-09-09T00:09:26.849Z,2.90
2018-09-09T00:11:02.315Z,3.37
2018-09-09T00:12:37.800Z,3.10
2018-09-09T00:14:13.573Z,2.67
2018-09-09T00:15:49.105Z,3.17
2018-09-09T00:17:24.575Z,2.73
2018-09-09T00:19:00.129Z,2.90
2018-09-09T00:20:35.629Z,3.20
2018-09-09T00:22:11.235Z,3.00
2018-09-09T00:23:46.756Z,3.60
2018-09-09T00:25:22.282Z,3.40
2018-09-09T00:26:57.798Z,3.30
2018-09-09T00:28:33.356Z,3.60
2018-09-09T00:30:08.886Z,3.40
2018-09-09T00:31:44.464Z,3.50
2018-09-09T00:33:19.985Z,3.20
2018-09-09T00:34:55.554Z,2.77
2018-09-09T00:36:31.068Z,3.50
2018-09-09T00:38:06.620Z,2.90
2018-09-09T00:39:42.151Z,3.30
2018-09-09T00:41:17.703Z,3.20
2018-09-09T00:42:53.254Z,3.13
2018-09-09T00:44:28.830Z,2.97
2018-09-09T00:46:04.342Z,2.93
2018-09-09T00:47:39.851Z,2.93
2018-09-09T00:49:20.738Z,2.90
2018-09-09T00:51:01.651Z,2.77
2018-09-09T00:52:42.504Z,3.03
2018-09-09T00:54:18.075Z,3.00
2018-09-09T00:55:53.613Z,2.60
2018-09-09T00:57:29.218Z,3.00
2018-09-09T00:59:05.049Z,3.30
2018-09-09T01:00:45.873Z,3.00
2018-09-09T01:02:21.809Z,3.53
2018-09-09T01:03:57.369Z,3.27
2018-09-09T01:05:32.956Z,2.97
2018-09-09T01:07:08.448Z,2.73
2018-09-09T01:08:44.027Z,3.30
2018-09-09T01:10:19.764Z,2.87
2018-09-09T01:11:55.298Z,3.00
2018-09-09T01:13:30.847Z,2.90
2018-09-09T01:15:06.567Z,3.20
2018-09-09T01:16:42.059Z,3.20
2018-09-09T01:18:17.539Z,3.00
2018-09-09T01:19:53.116Z,2.57
2018-09-09T01:21:28.597Z,3.10
2018-09-09T01:23:04.096Z,3.23
2018-09-09T01:24:39.683Z,2.93
2018-09-09T01:26:15.231Z,3.20
2018-09-09T01:27:50.741Z,3.10
2018-09-09T01:29:26.213Z,2.70
2018-09-09T01:31:01.745Z,3.07
2018-09-09T01:32:44.001Z,2.80
2018-09-09T01:34:19.581Z,2.87
2018-09-09T01:35:54.995Z,2.90
2018-09-09T01:37:30.530Z,2.60
2018-09-09T01:39:07.510Z,2.80
2018-09-09T01:40:43.001Z,2.87
2018-09-09T01:42:18.485Z,2.90
2018-09-09T01:43:54.036Z,2.90
2018-09-09T01:45:29.527Z,2.90
2018-09-09T01:47:05.098Z,2.67
2018-09-09T01:48:40.643Z,2.63
2018-09-09T01:50:16.319Z,2.77
2018-09-09T01:51:51.921Z,2.90
2018-09-09T01:53:27.482Z,2.80
2018-09-09T01:55:02.986Z,2.77
2018-09-09T01:56:38.487Z,2.77
2018-09-09T01:58:13.979Z,2.70
2018-09-09T01:59:49.581Z,2.80
2018-09-09T02:01:25.205Z,2.90
2018-09-09T02:03:00.675Z,3.00
2018-09-09T02:04:36.185Z,2.47
2018-09-09T02:06:11.718Z,2.43
2018-09-09T02:07:47.303Z,2.60
2018-09-09T02:09:22.812Z,2.53
2018-09-09T02:11:00.579Z,2.47
2018-09-09T02:12:36.102Z,2.60
2018-09-09T02:14:11.714Z,2.80
2018-09-09T02:15:47.215Z,2.63
2018-09-09T02:17:22.759Z,2.60
2018-09-09T02:18:58.321Z,2.60
2018-09-09T02:20:33.794Z,2.60
2018-09-09T02:22:09.317Z,2.57
2018-09-09T02:23:44.818Z,1.90
2018-09-09T02:25:20.351Z,2.47
2018-09-09T02:26:55.882Z,2.47
2018-09-09T02:28:31.375Z,2.60
2018-09-09T02:30:06.963Z,2.73
2018-09-09T02:31:42.443Z,2.53
2018-09-09T02:33:17.962Z,2.60
2018-09-09T02:34:53.544Z,2.97
2018-09-09T02:36:29.075Z,2.50
2018-09-09T02:38:04.660Z,2.60
2018-09-09T02:39:40.142Z,2.70
2018-09-09T02:41:15.674Z,2.60
2018-09-09T02:42:51.263Z,2.60
2018-09-09T02:44:26.767Z,2.60
2018-09-09T02:46:02.314Z,2.30
2018-09-09T02:47:38.155Z,2.40
2018-09-09T02:49:13.753Z,2.60
2018-09-09T02:50:49.310Z,2.50
2018-09-09T02:52:24.842Z,2.70
2018-09-09T02:54:00.427Z,2.33
2018-09-09T02:55:40.122Z,2.50
2018-09-09T02:57:15.637Z,2.20
2018-09-09T02:58:51.245Z,2.53
2018-09-09T03:00:26.797Z,2.63
2018-09-09T03:02:02.308Z,2.70
2018-09-09T03:03:37.829Z,2.97
2018-09-09T03:05:13.422Z,2.23
2018-09-09T03:06:48.958Z,2.63
2018-09-09T03:08:24.466Z,2.50
2018-09-09T03:10:00.024Z,2.40
2018-09-09T03:11:35.575Z,2.93
2018-09-09T03:13:11.087Z,2.73
2018-09-09T03:14:46.601Z,3.03
2018-09-09T03:16:22.065Z,2.80
2018-09-09T03:17:57.610Z,2.77
2018-09-09T03:19:33.152Z,2.53
2018-09-09T03:21:08.654Z,2.70
2018-09-09T03:22:44.139Z,2.80
2018-09-09T03:24:19.663Z,2.67
2018-09-09T03:25:55.185Z,2.83
2018-09-09T03:27:30.718Z,3.00
2018-09-09T03:29:06.224Z,2.60
2018-09-09T03:30:41.750Z,2.80
2018-09-09T03:32:17.304Z,2.40
2018-09-09T03:33:52.791Z,2.57
2018-09-09T03:35:28.310Z,3.00
2018-09-09T03:37:03.906Z,2.50
2018-09-09T03:38:39.400Z,2.97
2018-09-09T03:40:14.984Z,2.93
2018-09-09T03:41:50.617Z,2.93
2018-09-09T03:43:26.109Z,2.40
2018-09-09T03:45:01.600Z,2.60
2018-09-09T03:46:37.089Z,2.70
2018-09-09T03:48:12.720Z,2.50
2018-09-09T03:49:48.620Z,2.80
2018-09-09T03:51:24.099Z,2.50
2018-09-09T03:52:59.608Z,2.53
2018-09-09T03:54:35.100Z,2.47
2018-09-09T03:56:10.629Z,2.40
2018-09-09T03:57:46.199Z,2.30
2018-09-09T03:59:21.750Z,2.70
2018-09-09T04:00:57.269Z,2.60
2018-09-09T04:02:33.099Z,2.47
2018-09-09T04:04:08.629Z,2.60
2018-09-09T04:05:44.173Z,2.60
2018-09-09T04:07:19.671Z,2.30
2018-09-09T04:08:55.207Z,2.30
2018-09-09T04:10:30.711Z,2.70
2018-09-09T04:12:06.274Z,2.60
2018-09-09T04:13:43.023Z,2.40
2018-09-09T04:15:18.569Z,2.23
2018-09-09T04:17:00.756Z,2.30
2018-09-09T04:18:36.391Z,2.40
2018-09-09T04:20:11.931Z,2.43
2018-09-09T04:21:50.111Z,2.50
2018-09-09T04:23:25.722Z,2.50
2018-09-09T04:25:01.220Z,2.47
2018-09-09T04:26:36.751Z,2.50
2018-09-09T04:28:12.275Z,2.80
2018-09-09T04:29:47.907Z,2.30
2018-09-09T04:31:23.410Z,2.23
2018-09-09T04:32:58.912Z,2.47
2018-09-09T04:34:34.465Z,2.40
2018-09-09T04:36:10.025Z,2.40
2018-09-09T04:37:45.549Z,2.30
2018-09-09T04:39:21.120Z,2.57
2018-09-09T04:40:56.737Z,2.40
2018-09-09T04:42:32.266Z,2.40
2018-09-09T04:44:08.040Z,2.57
2018-09-09T04:45:43.891Z,2.77
2018-09-09T04:47:19.602Z,2.53
2018-09-09T04:48:55.102Z,2.30
2018-09-09T04:50:30.582Z,2.73
2018-09-09T04:52:06.101Z,2.83
2018-09-09T04:53:41.652Z,2.33
2018-09-09T04:55:17.157Z,2.50
2018-09-09T04:56:52.724Z,3.20
2018-09-09T04:58:28.265Z,3.03
2018-09-09T05:00:03.858Z,3.47
2018-09-09T05:01:39.365Z,3.10
2018-09-09T05:03:15.086Z,2.90
2018-09-09T05:04:50.678Z,2.77
2018-09-09T05:06:26.290Z,2.70
2018-09-09T05:08:01.985Z,2.80
2018-09-09T05:09:39.041Z,2.43
2018-09-09T05:11:15.192Z,2.87
2018-09-09T05:12:50.992Z,2.60
2018-09-09T05:14:26.794Z,2.40
2018-09-09T05:16:02.383Z,2.60
2018-09-09T05:17:37.979Z,2.43
2018-09-09T05:19:13.587Z,2.53
2018-09-09T05:20:49.068Z,2.40
2018-09-09T05:22:24.615Z,2.40
2018-09-09T05:24:00.149Z,2.83
2018-09-09T05:25:35.734Z,2.43
2018-09-09T05:27:11.314Z,2.60
2018-09-09T05:28:46.779Z,2.30
2018-09-09T05:30:22.352Z,2.53
2018-09-09T05:31:58.069Z,2.57
2018-09-09T05:33:33.719Z,2.40
2018-09-09T05:35:09.251Z,2.50
2018-09-09T05:36:44.894Z,2.60
2018-09-09T05:38:20.414Z,2.60
2018-09-09T05:39:56.100Z,2.27
2018-09-09T05:41:31.611Z,2.70
2018-09-09T05:43:07.200Z,2.60
2018-09-09T05:44:42.755Z,2.83
2018-09-09T05:46:18.340Z,2.57
2018-09-09T05:47:53.862Z,2.63
2018-09-09T05:49:29.552Z,2.90
2018-09-09T05:51:05.698Z,2.83
2018-09-09T05:52:41.302Z,2.80
2018-09-09T05:54:16.812Z,2.60
2018-09-09T05:55:52.455Z,2.63
2018-09-09T05:57:28.093Z,2.60
2018-09-09T05:59:03.635Z,2.77
2018-09-09T06:00:39.182Z,2.97
2018-09-09T06:02:14.718Z,2.70
2018-09-09T06:03:50.264Z,2.13
2018-09-09T06:05:25.838Z,2.50
2018-09-09T06:07:01.479Z,2.40
2018-09-09T06:08:37.002Z,2.63
2018-09-09T06:10:12.675Z,2.50
2018-09-09T06:11:48.277Z,2.40
2018-09-09T06:13:25.606Z,2.50
2018-09-09T06:15:01.165Z,3.17
2018-09-09T06:16:36.756Z,2.90
2018-09-09T06:18:12.355Z,3.00
2018-09-09T06:19:47.968Z,2.80
2018-09-09T06:21:25.501Z,2.43
2018-09-09T06:23:01.286Z,2.57
2018-09-09T06:24:36.818Z,2.93
2018-09-09T06:26:12.701Z,3.60
2018-09-09T06:27:49.202Z,4.47
2018-09-09T06:29:24.767Z,3.60
2018-09-09T06:31:00.933Z,3.30
2018-09-09T06:32:36.536Z,3.07
2018-09-09T06:34:13.467Z,3.20
2018-09-09T06:35:49.143Z,3.20
2018-09-09T06:37:24.675Z,2.73
2018-09-09T06:39:00.381Z,2.80
2018-09-09T06:40:35.879Z,2.77
2018-09-09T06:42:11.421Z,2.80
2018-09-09T06:43:46.987Z,2.80
2018-09-09T06:45:22.544Z,2.50
2018-09-09T06:46:58.449Z,2.67
2018-09-09T06:48:34.201Z,3.00
2018-09-09T06:50:10.008Z,3.07
2018-09-09T06:53:34.171Z,2.97
2018-09-09T06:55:09.728Z,2.90
2018-09-09T06:56:45.457Z,2.90
2018-09-09T06:58:21.307Z,2.67
2018-09-09T07:00:01.140Z,2.90
2018-09-09T07:01:37.566Z,2.67
2018-09-09T07:03:13.068Z,3.20
2018-09-09T07:04:48.996Z,3.00
2018-09-09T07:06:28.681Z,2.80
2018-09-09T07:08:04.181Z,2.50
2018-09-09T07:09:39.714Z,3.00
2018-09-09T07:11:15.387Z,2.80
2018-09-09T07:12:50.959Z,2.70
2018-09-09T07:14:26.503Z,2.70
2018-09-09T07:16:02.169Z,2.90
2018-09-09T07:17:37.811Z,2.90
2018-09-09T07:19:13.457Z,2.60
2018-09-09T07:20:49.248Z,2.63
2018-09-09T07:22:24.884Z,2.57
2018-09-09T07:24:00.509Z,3.73
2018-09-09T07:25:36.104Z,3.20
2018-09-09T07:27:11.733Z,3.43
2018-09-09T07:28:47.323Z,2.90
2018-09-09T07:30:22.936Z,2.80
2018-09-09T07:31:58.501Z,2.80
2018-09-09T07:33:34.065Z,2.80
2018-09-09T07:35:09.650Z,2.87
2018-09-09T07:36:45.190Z,2.87
2018-09-09T07:38:20.816Z,2.80
2018-09-09T07:39:56.483Z,2.87
2018-09-09T07:41:31.997Z,2.83
2018-09-09T07:43:07.810Z,2.80
2018-09-09T07:44:43.340Z,2.87
2018-09-09T07:46:18.945Z,2.90
2018-09-09T07:47:54.450Z,3.00
2018-09-09T07:49:29.992Z,2.90
2018-09-09T07:51:05.635Z,2.80
2018-09-09T07:52:41.192Z,2.80
2018-09-09T07:54:16.857Z,2.80
2018-09-09T07:55:52.431Z,2.60
2018-09-09T07:57:28.519Z,2.57
2018-09-09T07:59:04.160Z,2.50
2018-09-09T08:00:39.740Z,2.70
2018-09-09T08:02:15.324Z,2.60
2018-09-09T08:03:51.790Z,2.90
2018-09-09T08:05:27.674Z,2.80
2018-09-09T08:07:03.272Z,2.97
2018-09-09T08:08:41.141Z,3.10
2018-09-09T08:10:16.700Z,2.90
2018-09-09T08:11:52.261Z,2.60
2018-09-09T08:13:27.850Z,2.53
2018-09-09T08:15:03.407Z,2.53
2018-09-09T08:16:39.097Z,3.43
2018-09-09T08:18:14.728Z,2.70
2018-09-09T08:19:50.356Z,2.60
2018-09-09T08:21:25.935Z,2.40
2018-09-09T08:23:01.462Z,2.07
2018-09-09T08:24:37.044Z,2.00
2018-09-09T08:26:12.639Z,2.00
2018-09-09T08:27:48.222Z,2.00
2018-09-09T08:29:23.770Z,2.30
2018-09-09T08:30:59.328Z,2.10
2018-09-09T08:32:35.135Z,2.50
2018-09-09T08:34:10.609Z,2.10
2018-09-09T08:35:46.108Z,2.10
2018-09-09T08:37:21.665Z,2.27
2018-09-09T08:38:57.266Z,2.40
2018-09-09T08:40:32.852Z,2.23
2018-09-09T08:42:08.402Z,2.40
2018-09-09T08:43:43.970Z,2.30
2018-09-09T08:45:19.583Z,2.20
2018-09-09T08:46:55.107Z,2.43
2018-09-09T08:48:30.662Z,2.20
2018-09-09T08:50:06.274Z,2.20
2018-09-09T08:51:41.858Z,2.13
2018-09-09T08:53:17.399Z,2.30
2018-09-09T08:54:52.976Z,2.10
2018-09-09T08:56:29.083Z,2.10
2018-09-09T08:58:05.327Z,1.83
2018-09-09T08:59:41.353Z,1.80
2018-09-09T09:01:17.560Z,1.90
2018-09-09T09:02:53.876Z,2.00
2018-09-09T09:04:29.529Z,2.17
2018-09-09T09:06:05.124Z,1.90
2018-09-09T09:07:40.730Z,2.20
2018-09-09T09:09:16.343Z,2.40
2018-09-09T09:10:51.914Z,2.97
2018-09-09T09:12:27.488Z,2.33
2018-09-09T09:14:03.128Z,2.47
2018-09-09T09:15:38.699Z,3.17
2018-09-09T09:17:14.408Z,2.27
2018-09-09T09:18:49.984Z,2.20
2018-09-09T09:20:25.663Z,2.00
2018-09-09T09:22:01.199Z,1.80
2018-09-09T09:23:36.880Z,1.60
2018-09-09T09:25:12.412Z,1.80
2018-09-09T09:26:48.998Z,1.97
2018-09-09T09:28:24.726Z,1.60
2018-09-09T09:30:00.231Z,2.00
2018-09-09T09:31:35.903Z,1.83
2018-09-09T09:33:11.572Z,1.80
2018-09-09T09:34:47.174Z,1.63
2018-09-09T09:36:22.795Z,1.40
2018-09-09T09:37:58.534Z,1.60
2018-09-09T09:39:34.271Z,1.80
2018-09-09T09:41:09.874Z,1.50
2018-09-09T09:42:45.460Z,2.30
2018-09-09T09:44:21.038Z,1.90
2018-09-09T09:45:56.712Z,1.83
2018-09-09T09:47:32.420Z,1.50
2018-09-09T09:49:22.766Z,1.70
2018-09-09T09:50:58.381Z,2.10
2018-09-09T09:52:34.024Z,2.07
2018-09-09T09:54:09.761Z,1.77
2018-09-09T09:55:45.451Z,2.00
2018-09-09T09:57:21.058Z,2.03
2018-09-09T09:59:03.528Z,2.27
2018-09-09T10:00:44.466Z,6.80
2018-09-09T10:02:20.373Z,6.90
2018-09-09T10:03:55.960Z,3.80
2018-09-09T10:05:31.910Z,4.07
2018-09-09T10:07:07.559Z,3.40
2018-09-09T10:08:43.084Z,2.20
2018-09-09T10:10:18.678Z,2.57
2018-09-09T10:11:54.232Z,1.50
2018-09-09T10:13:29.765Z,1.70
2018-09-09T10:15:05.611Z,1.50
2018-09-09T10:16:41.136Z,2.00
2018-09-09T10:18:16.682Z,1.70
2018-09-09T10:19:52.231Z,2.70
2018-09-09T10:21:27.832Z,1.70
2018-09-09T10:23:03.373Z,1.93
2018-09-09T10:24:38.888Z,1.40
2018-09-09T10:26:14.534Z,2.30
2018-09-09T10:27:50.090Z,1.30
2018-09-09T10:29:25.683Z,1.80
2018-09-09T10:31:01.243Z,1.60
2018-09-09T10:32:36.938Z,1.73
2018-09-09T10:34:12.554Z,1.60
2018-09-09T10:35:48.550Z,1.90
2018-09-09T10:37:24.092Z,1.57
2018-09-09T10:38:59.644Z,1.70
2018-09-09T10:40:35.160Z,1.30
2018-09-09T10:42:10.711Z,1.20
2018-09-09T10:43:46.296Z,1.33
2018-09-09T10:45:21.826Z,1.40
2018-09-09T10:46:57.422Z,1.43
2018-09-09T10:48:33.329Z,1.70
2018-09-09T10:50:08.950Z,1.50
2018-09-09T10:51:44.532Z,1.30
2018-09-09T10:53:21.204Z,1.40
2018-09-09T10:54:56.845Z,1.50
2018-09-09T10:56:33.598Z,1.63
2018-09-09T10:58:09.166Z,1.40
2018-09-09T10:59:44.927Z,1.57
2018-09-09T11:01:20.466Z,1.20
2018-09-09T11:02:55.997Z,1.33
2018-09-09T11:04:31.576Z,1.40
2018-09-09T11:06:07.195Z,1.73
2018-09-09T11:07:42.700Z,1.60
2018-09-09T11:09:18.633Z,1.63
2018-09-09T11:10:54.233Z,1.20
2018-09-09T11:12:31.712Z,1.47
2018-09-09T11:14:07.267Z,1.60
2018-09-09T11:15:42.835Z,1.50
2018-09-09T11:17:18.567Z,1.43
2018-09-09T11:18:54.142Z,1.40
2018-09-09T11:20:30.193Z,1.30
2018-09-09T11:22:05.811Z,1.40
2018-09-09T11:23:41.370Z,1.10
2018-09-09T11:25:16.906Z,1.13
2018-09-09T11:26:52.450Z,1.47
2018-09-09T11:28:27.980Z,1.13
2018-09-09T11:30:03.799Z,1.47
2018-09-09T11:31:39.304Z,1.30
2018-09-09T11:33:14.851Z,1.13
2018-09-09T11:34:50.349Z,1.60
2018-09-09T11:36:25.865Z,1.23
2018-09-09T11:38:01.563Z,1.60
2018-09-09T11:39:37.033Z,1.30
2018-09-09T11:41:12.631Z,1.23
2018-09-09T11:42:49.341Z,1.13
2018-09-09T11:44:24.894Z,1.20
2018-09-09T11:46:00.463Z,1.40
2018-09-09T11:47:36.090Z,1.27
2018-09-09T11:49:11.785Z,1.33
2018-09-09T11:50:47.313Z,1.33
2018-09-09T11:52:22.810Z,1.30
2018-09-09T11:53:58.371Z,1.17
2018-09-09T11:55:33.915Z,1.13
2018-09-09T11:57:09.733Z,1.40
2018-09-09T11:58:45.504Z,1.10
2018-09-09T12:00:21.198Z,1.13
2018-09-09T12:01:56.895Z,1.30
2018-09-09T12:03:32.368Z,1.10
2018-09-09T12:05:07.897Z,1.30
2018-09-09T12:06:43.782Z,1.20
2018-09-09T12:08:19.399Z,0.80
2018-09-09T12:09:55.022Z,1.30
2018-09-09T12:11:30.630Z,1.00
2018-09-09T12:13:06.717Z,1.00
2018-09-09T12:14:43.150Z,1.80
2018-09-09T12:16:18.886Z,1.00
2018-09-09T12:17:54.411Z,1.10
2018-09-09T12:19:29.974Z,1.30
2018-09-09T12:21:05.702Z,1.93
2018-09-09T12:22:41.232Z,1.60
2018-09-09T12:24:16.787Z,1.50
2018-09-09T12:25:52.380Z,1.20
2018-09-09T12:27:28.159Z,1.20
2018-09-09T12:29:03.685Z,1.00
2018-09-09T12:30:39.256Z,1.40
2018-09-09T12:32:15.057Z,1.00
2018-09-09T12:33:50.544Z,1.10
2018-09-09T12:35:26.082Z,0.90
2018-09-09T12:37:01.598Z,1.20
2018-09-09T12:38:37.163Z,1.20
2018-09-09T12:40:12.721Z,1.10
2018-09-09T12:41:48.304Z,0.90
2018-09-09T12:43:29.219Z,1.47
2018-09-09T12:45:10.382Z,1.10
2018-09-09T12:46:51.411Z,0.90
2018-09-09T12:48:32.299Z,1.00
2018-09-09T12:50:07.854Z,1.00
2018-09-09T12:51:43.404Z,1.15
2018-09-09T12:53:18.892Z,1.00
2018-09-09T12:54:54.433Z,1.02
2018-09-09T12:56:29.941Z,1.15
2018-09-09T12:58:05.478Z,1.10
2018-09-09T12:59:41.033Z,1.20
2018-09-09T13:01:16.555Z,1.15
2018-09-09T13:02:52.073Z,1.27
2018-09-09T13:04:27.601Z,1.20
2018-09-09T13:06:03.197Z,0.85
2018-09-09T13:07:38.670Z,1.20
2018-09-09T13:09:14.250Z,1.05
2018-09-09T13:10:50.305Z,1.20
2018-09-09T13:12:30.344Z,1.10
2018-09-09T13:14:05.883Z,0.88
2018-09-09T13:15:41.361Z,1.25
2018-09-09T13:17:16.892Z,1.02
2018-09-09T13:18:52.476Z,1.07
2018-09-09T13:20:28.011Z,1.20
2018-09-09T13:22:03.863Z,1.10
2018-09-09T13:23:39.423Z,1.30
2018-09-09T13:25:14.922Z,1.12
2018-09-09T13:26:51.056Z,1.10
2018-09-09T13:28:26.566Z,1.22
2018-09-09T13:30:02.080Z,1.25
2018-09-09T13:31:37.614Z,1.35
2018-09-09T13:33:13.159Z,1.10
2018-09-09T13:34:49.124Z,1.00
2018-09-09T13:36:24.876Z,1.30
2018-09-09T13:38:00.349Z,1.60
2018-09-09T13:39:35.847Z,1.30
2018-09-09T13:41:11.365Z,1.20
2018-09-09T13:42:46.890Z,1.30
2018-09-09T13:44:22.427Z,1.10
2018-09-09T13:45:57.989Z,1.20
2018-09-09T13:47:33.476Z,1.00
2018-09-09T13:49:08.993Z,1.00
2018-09-09T13:50:44.516Z,1.17
2018-09-09T13:52:20.108Z,1.20
2018-09-09T13:53:55.603Z,1.07
2018-09-09T13:55:31.076Z,1.50
2018-09-09T13:57:07.559Z,1.23
2018-09-09T13:58:43.138Z,1.20
2018-09-09T14:00:18.661Z,1.07
2018-09-09T14:01:54.175Z,1.07
2018-09-09T14:03:29.655Z,1.60
2018-09-09T14:05:06.212Z,1.20
2018-09-09T14:06:41.663Z,1.10
2018-09-09T14:08:17.236Z,1.40
2018-09-09T14:09:52.725Z,1.23
2018-09-09T14:11:28.226Z,1.30
2018-09-09T14:13:03.696Z,1.50
2018-09-09T14:14:39.191Z,1.17
2018-09-09T14:16:14.719Z,1.17
2018-09-09T14:17:50.220Z,1.10
2018-09-09T14:19:25.694Z,1.10
2018-09-09T14:21:01.238Z,1.47
2018-09-09T14:22:36.739Z,1.17
2018-09-09T14:24:12.237Z,1.10
2018-09-09T14:25:47.769Z,1.20
2018-09-09T14:27:23.295Z,1.40
2018-09-09T14:28:58.887Z,1.17
2018-09-09T14:30:34.395Z,1.30
2018-09-09T14:32:09.874Z,1.20
2018-09-09T14:33:45.355Z,0.90
2018-09-09T14:35:21.198Z,0.97
2018-09-09T14:36:56.690Z,0.93
2018-09-09T14:38:38.884Z,1.00
2018-09-09T14:40:14.444Z,1.20
2018-09-09T14:41:50.004Z,1.00
2018-09-09T14:43:25.542Z,1.10
2018-09-09T14:45:01.149Z,1.30
2018-09-09T14:46:36.840Z,1.40
2018-09-09T14:48:12.350Z,1.45
2018-09-09T14:49:47.914Z,1.20
2018-09-09T14:51:23.496Z,1.00
2018-09-09T14:52:58.985Z,1.25
2018-09-09T14:54:34.476Z,1.10
2018-09-09T14:56:09.983Z,1.20
2018-09-09T14:57:45.473Z,1.40
2018-09-09T14:59:21.076Z,1.30
2018-09-09T15:00:56.685Z,1.10
2018-09-09T15:02:32.272Z,0.98
2018-09-09T15:04:07.769Z,1.00
2018-09-09T15:05:43.724Z,1.20
2018-09-09T15:07:19.326Z,1.82
2018-09-09T15:08:54.891Z,1.27
2018-09-09T15:10:30.686Z,1.40
2018-09-09T15:12:06.373Z,1.37
2018-09-09T15:13:42.033Z,0.90
2018-09-09T15:15:17.568Z,1.37
2018-09-09T15:16:53.237Z,1.35
2018-09-09T15:18:28.868Z,1.00
2018-09-09T15:20:04.433Z,1.20
2018-09-09T15:21:39.970Z,1.20
2018-09-09T15:23:15.532Z,1.07
2018-09-09T15:24:51.083Z,1.05
2018-09-09T15:26:26.678Z,1.17
2018-09-09T15:28:02.364Z,1.20
2018-09-09T15:29:37.951Z,1.15
2018-09-09T15:31:13.520Z,1.30
2018-09-09T15:32:49.106Z,1.27
2018-09-09T15:34:24.738Z,1.30
2018-09-09T15:36:00.549Z,1.30
2018-09-09T15:37:37.024Z,1.20
2018-09-09T15:39:12.610Z,1.20
2018-09-09T15:40:48.213Z,1.37
2018-09-09T15:42:23.798Z,1.32
2018-09-09T15:43:59.312Z,1.30
2018-09-09T15:45:34.930Z,0.90
2018-09-09T15:47:10.476Z,1.10
2018-09-09T15:48:46.035Z,1.30
2018-09-09T15:50:21.543Z,1.27
2018-09-09T15:51:57.881Z,1.40
2018-09-09T15:53:33.404Z,1.17
2018-09-09T15:55:08.905Z,1.30
2018-09-09T15:56:44.525Z,1.45
2018-09-09T15:58:21.063Z,1.50
2018-09-09T15:59:56.892Z,1.20
2018-09-09T16:01:32.614Z,1.10
2018-09-09T16:03:08.721Z,1.13
2018-09-09T16:04:44.333Z,1.30
2018-09-09T16:06:19.868Z,1.20
2018-09-09T16:07:55.373Z,1.40
2018-09-09T16:09:30.927Z,1.10
2018-09-09T16:11:06.429Z,1.33
2018-09-09T16:12:41.995Z,1.00
2018-09-09T16:14:17.433Z,1.60
2018-09-09T16:15:52.933Z,1.00
2018-09-09T16:17:28.638Z,1.20
2018-09-09T16:19:04.093Z,1.00
2018-09-09T16:20:39.641Z,1.43
2018-09-09T16:22:15.145Z,2.20
2018-09-09T16:23:50.696Z,1.60
2018-09-09T16:25:26.412Z,3.90
2018-09-09T16:27:01.959Z,1.97
2018-09-09T16:28:37.806Z,2.40
2018-09-09T16:30:13.546Z,1.40
2018-09-09T16:31:49.043Z,1.40
2018-09-09T16:33:24.547Z,1.53
2018-09-09T16:35:00.087Z,1.30
2018-09-09T16:36:35.599Z,1.60
2018-09-09T16:38:11.162Z,1.23
2018-09-09T16:39:46.811Z,1.50
2018-09-09T16:41:22.257Z,1.80
2018-09-09T16:42:58.440Z,1.30
2018-09-09T16:44:34.970Z,1.90
2018-09-09T16:46:10.487Z,1.53
2018-09-09T16:47:46.035Z,1.40
2018-09-09T16:49:21.671Z,1.80
2018-09-09T16:50:57.220Z,1.60
2018-09-09T16:52:32.845Z,1.40
2018-09-09T16:54:09.550Z,1.40
2018-09-09T16:55:45.123Z,1.30
2018-09-09T16:57:20.655Z,1.30
2018-09-09T16:58:56.228Z,1.50
2018-09-09T17:00:31.761Z,1.53
2018-09-09T17:02:07.287Z,1.20
2018-09-09T17:03:42.900Z,1.20
2018-09-09T17:05:18.390Z,1.30
2018-09-09T17:06:53.887Z,1.80
2018-09-09T17:08:29.418Z,1.33
2018-09-09T17:10:05.769Z,1.10
2018-09-09T17:11:41.635Z,1.43
2018-09-09T17:13:17.227Z,1.50
2018-09-09T17:14:52.815Z,1.70
2018-09-09T17:16:28.375Z,1.47
2018-09-09T17:18:03.929Z,1.60
2018-09-09T17:19:39.540Z,1.40
2018-09-09T17:23:05.135Z,1.50
2018-09-09T17:24:40.675Z,1.50
2018-09-09T17:26:16.331Z,1.10
2018-09-09T17:27:51.902Z,1.40
2018-09-09T17:29:27.420Z,1.53
2018-09-09T17:31:02.965Z,1.80
2018-09-09T17:32:38.509Z,1.50
2018-09-09T17:34:14.147Z,1.53
2018-09-09T17:35:49.658Z,1.50
2018-09-09T17:37:25.149Z,1.60
2018-09-09T17:39:00.821Z,1.90
2018-09-09T17:40:36.406Z,2.00
2018-09-09T17:42:12.003Z,1.50
2018-09-09T17:43:47.716Z,1.60
2018-09-09T17:45:23.399Z,1.40
2018-09-09T17:46:59.064Z,1.60
2018-09-09T17:48:36.212Z,1.50
2018-09-09T17:50:11.803Z,1.67
2018-09-09T17:51:47.542Z,1.80
2018-09-09T17:53:23.141Z,1.50
2018-09-09T17:54:58.746Z,1.50
2018-09-09T17:56:40.109Z,1.50
2018-09-09T17:58:15.236Z,1.93
2018-09-09T17:59:50.990Z,1.53
2018-09-09T18:01:26.892Z,1.50
2018-09-09T18:03:02.533Z,1.60
2018-09-09T18:04:38.179Z,1.57
2018-09-09T18:06:13.774Z,1.60
2018-09-09T18:07:49.360Z,1.40
2018-09-09T18:09:25.093Z,1.60
2018-09-09T18:11:01.169Z,1.50
2018-09-09T18:12:36.892Z,1.57
2018-09-09T18:14:12.484Z,1.70
2018-09-09T18:15:48.249Z,1.60
2018-09-09T18:17:23.953Z,1.47
2018-09-09T18:18:59.768Z,1.40
2018-09-09T18:20:35.462Z,1.87
2018-09-09T18:22:11.198Z,2.00
2018-09-09T18:23:46.925Z,2.00
2018-09-09T18:25:23.451Z,1.90
2018-09-09T18:26:59.268Z,1.90
2018-09-09T18:28:34.943Z,1.73
2018-09-09T18:30:10.702Z,1.83
2018-09-09T18:31:46.373Z,1.93
2018-09-09T18:33:22.034Z,1.80
2018-09-09T18:34:57.737Z,2.00
2018-09-09T18:36:33.565Z,1.83
2018-09-09T18:38:09.204Z,1.90
2018-09-09T18:39:44.904Z,1.80
2018-09-09T18:41:20.493Z,1.80
2018-09-09T18:42:56.216Z,2.10
2018-09-09T18:44:31.859Z,1.80
2018-09-09T18:46:08.009Z,1.70
2018-09-09T18:47:50.941Z,2.07
2018-09-09T18:49:26.606Z,2.23
2018-09-09T18:51:02.282Z,2.13
2018-09-09T18:52:37.935Z,2.17
2018-09-09T18:54:13.632Z,2.20
2018-09-09T18:55:49.337Z,2.03
2018-09-09T18:57:24.962Z,1.90
2018-09-09T18:59:00.656Z,1.73
2018-09-09T19:00:36.448Z,1.97
2018-09-09T19:02:12.070Z,1.63
2018-09-09T19:03:47.690Z,1.90
2018-09-09T19:05:23.390Z,1.77
2018-09-09T19:06:59.205Z,1.63
2018-09-09T19:08:34.854Z,1.70
2018-09-09T19:10:10.420Z,1.80
2018-09-09T19:11:46.075Z,1.67
2018-09-09T19:13:21.706Z,2.10
2018-09-09T19:14:57.364Z,2.30
2018-09-09T19:16:33.065Z,2.30
2018-09-09T19:18:08.614Z,2.27
2018-09-09T19:19:44.404Z,1.90
2018-09-09T19:21:20.156Z,1.90
2018-09-09T19:22:56.288Z,1.73
2018-09-09T19:24:31.880Z,1.53
2018-09-09T19:26:07.446Z,1.50
2018-09-09T19:27:43.330Z,1.50
2018-09-09T19:29:18.951Z,1.70
2018-09-09T19:30:54.914Z,1.93
2018-09-09T19:32:30.617Z,1.60
2018-09-09T19:34:06.782Z,1.63
2018-09-09T19:35:45.982Z,1.63
2018-09-09T19:37:21.548Z,1.60
2018-09-09T19:38:57.402Z,1.80
2018-09-09T19:40:33.048Z,1.50
2018-09-09T19:42:09.620Z,1.73
2018-09-09T19:43:45.218Z,1.50
2018-09-09T19:45:20.918Z,1.47
2018-09-09T19:46:56.562Z,1.70
2018-09-09T19:48:32.654Z,1.40
2018-09-09T19:50:14.400Z,1.60
2018-09-09T19:51:52.397Z,1.60
2018-09-09T19:53:28.052Z,1.60
2018-09-09T19:55:03.716Z,1.80
2018-09-09T19:56:39.301Z,1.60
2018-09-09T19:58:14.904Z,1.70
2018-09-09T19:59:50.502Z,1.93
2018-09-09T20:01:26.155Z,1.83
2018-09-09T20:03:01.718Z,1.63
2018-09-09T20:04:43.802Z,1.57
2018-09-09T20:06:19.450Z,1.70
2018-09-09T20:07:55.023Z,1.97
2018-09-09T20:09:30.738Z,1.90
2018-09-09T20:11:06.380Z,1.90
2018-09-09T20:12:42.022Z,2.10
2018-09-09T20:14:17.732Z,1.70
2018-09-09T20:15:53.911Z,1.70
2018-09-09T20:17:29.592Z,2.20
2018-09-09T20:19:05.406Z,2.33
2018-09-09T20:20:41.010Z,1.80
2018-09-09T20:22:16.615Z,2.10
2018-09-09T20:23:52.225Z,2.20
2018-09-09T20:25:27.792Z,2.10
2018-09-09T20:27:03.400Z,1.80
2018-09-09T20:28:39.032Z,1.93
2018-09-09T20:30:14.656Z,1.80
2018-09-09T20:31:50.258Z,1.83
2018-09-09T20:33:25.838Z,1.97
2018-09-09T20:35:01.395Z,1.90
2018-09-09T20:36:37.018Z,1.90
2018-09-09T20:38:12.561Z,1.90
2018-09-09T20:39:48.144Z,1.60
2018-09-09T20:41:23.713Z,1.90
2018-09-09T20:42:59.304Z,2.00
2018-09-09T20:44:34.868Z,1.83
2018-09-09T20:46:10.450Z,1.83
2018-09-09T20:47:46.236Z,2.20
2018-09-09T20:49:21.785Z,1.87
2018-09-09T20:50:57.398Z,1.93
2018-09-09T20:52:33.052Z,2.00
2018-09-09T20:54:08.580Z,2.20
2018-09-09T20:55:44.192Z,1.93
2018-09-09T20:57:19.815Z,1.73
2018-09-09T20:58:55.321Z,2.10
2018-09-09T21:00:30.893Z,2.00
2018-09-09T21:02:06.443Z,1.93
2018-09-09T21:03:41.982Z,2.00
2018-09-09T21:05:17.520Z,2.07
2018-09-09T21:06:53.090Z,2.30
2018-09-09T21:08:28.675Z,2.33
2018-09-09T21:10:04.416Z,2.10
2018-09-09T21:11:39.935Z,2.30
2018-09-09T21:13:15.474Z,1.97
2018-09-09T21:14:51.086Z,2.00
2018-09-09T21:16:26.679Z,1.70
2018-09-09T21:18:02.285Z,1.90
2018-09-09T21:19:38.424Z,2.10